Time;durP1;ratioP1;P1;durP2;ratioP2;P2;SDS_P1;SDS_P2;PMS_P1;PMS_P2;Temp;Humidity;BMP_temperature;BMP_pressure;BME280_temperature;BME280_humidity;BME280_pressure;Samples;Min_cycle;Max_cycle;Signal;HPM_P1;HPM_P2
2021/01/04 00:00:23;;;;;;;40.92;22.85;;;;;;;;;;4915701;29;20048;-72
2021/01/04 00:03:41;;;;;;;43.40;23.67;;;;;;;;;;4915247;29;20048;-72
2021/01/04 00:06:38;;;;;;;41.83;23.13;;;;;;;;;;4903804;29;20064;-72
2021/01/04 00:09:25;;;;;;;42.13;23.30;;;;;;;;;;4912605;29;20056;-72
2021/01/04 00:11:56;;;;;;;48.45;25.17;;;;;;;;;;4914105;29;20134;-72
2021/01/04 00:14:52;;;;;;;43.78;24.55;;;;;;;;;;4914473;29;20463;-72
2021/01/04 00:17:33;;;;;;;42.55;24.90;;;;;;;;;;4895212;29;20067;-72
2021/01/04 00:20:33;;;;;;;40.53;24.13;;;;;;;;;;4916341;29;20115;-72
2021/01/04 00:23:27;;;;;;;46.50;23.98;;;;;;;;;;4914954;29;20048;-72
2021/01/04 00:26:01;;;;;;;45.95;24.10;;;;;;;;;;4901658;29;20107;-72
2021/01/04 00:28:29;;;;;;;45.95;25.35;;;;;;;;;;4900168;29;20182;-72
2021/01/04 00:31:26;;;;;;;44.80;25.35;;;;;;;;;;4899336;29;20123;-72
2021/01/04 00:33:55;;;;;;;43.08;24.13;;;;;;;;;;4915142;29;20416;-72
2021/01/04 00:36:30;;;;;;;43.20;23.75;;;;;;;;;;4915533;29;20074;-72
2021/01/04 00:39:15;;;;;;;42.90;24.15;;;;;;;;;;4914373;29;20055;-72
2021/01/04 00:42:16;;;;;;;46.75;24.48;;;;;;;;;;4915383;29;20048;-72
2021/01/04 00:44:57;;;;;;;43.13;23.13;;;;;;;;;;4914072;29;20111;-71
2021/01/04 00:47:51;;;;;;;41.33;23.50;;;;;;;;;;4915122;29;20513;-72
2021/01/04 00:50:46;;;;;;;43.22;23.30;;;;;;;;;;4899856;29;20051;-72
2021/01/04 00:53:33;;;;;;;41.38;23.00;;;;;;;;;;4914879;29;20051;-72
2021/01/04 00:56:14;;;;;;;46.50;24.77;;;;;;;;;;4904436;29;20871;-72
2021/01/04 00:59:01;;;;;;;44.60;24.10;;;;;;;;;;4914396;29;20555;-72
2021/01/04 01:01:30;;;;;;;43.10;24.55;;;;;;;;;;4914834;29;20052;-72
2021/01/04 01:04:41;;;;;;;44.28;24.52;;;;;;;;;;4910460;29;20452;-72
2021/01/04 01:07:15;;;;;;;42.30;22.95;;;;;;;;;;4913498;29;20052;-72
2021/01/04 01:09:48;;;;;;;44.05;24.27;;;;;;;;;;4915342;29;20082;-72
2021/01/04 01:12:39;;;;;;;47.22;25.13;;;;;;;;;;4914765;29;20159;-72
2021/01/04 01:15:22;;;;;;;45.08;23.67;;;;;;;;;;4914010;29;20151;-72
2021/01/04 01:18:22;;;;;;;45.40;24.52;;;;;;;;;;4913459;29;20059;-72
2021/01/04 01:20:53;;;;;;;50.15;26.08;;;;;;;;;;4914241;29;20092;-72
2021/01/04 01:23:19;;;;;;;45.55;24.38;;;;;;;;;;4912851;29;20076;-72
2021/01/04 01:25:49;;;;;;;44.80;24.92;;;;;;;;;;4895478;29;20579;-72
2021/01/04 01:28:40;;;;;;;50.50;26.27;;;;;;;;;;4896021;29;20076;-72
2021/01/04 01:31:13;;;;;;;43.25;24.60;;;;;;;;;;4897126;29;20372;-72
2021/01/04 01:34:05;;;;;;;47.05;25.77;;;;;;;;;;4895923;29;20044;-72
2021/01/04 01:36:54;;;;;;;43.08;23.58;;;;;;;;;;4895580;29;20128;-72
2021/01/04 01:39:26;;;;;;;41.35;22.70;;;;;;;;;;4895744;29;20052;-71
2021/01/04 01:42:15;;;;;;;44.00;24.15;;;;;;;;;;4896876;29;20350;-71
2021/01/04 01:44:51;;;;;;;44.83;23.92;;;;;;;;;;4886822;29;20099;-72
2021/01/04 01:47:32;;;;;;;47.97;25.25;;;;;;;;;;4899398;29;20060;-72
2021/01/04 01:50:30;;;;;;;45.28;26.23;;;;;;;;;;4899803;29;20052;-72
2021/01/04 01:53:07;;;;;;;44.42;23.05;;;;;;;;;;4910972;29;20092;-72
2021/01/04 01:55:39;;;;;;;44.00;24.52;;;;;;;;;;4880527;29;20108;-71
2021/01/04 01:58:33;;;;;;;45.78;24.00;;;;;;;;;;4909621;29;20080;-71
2021/01/04 02:01:30;;;;;;;42.30;22.98;;;;;;;;;;4898004;29;20457;-72
2021/01/04 02:04:22;;;;;;;40.08;24.20;;;;;;;;;;4896019;29;20497;-72
2021/01/04 02:06:51;;;;;;;43.88;23.70;;;;;;;;;;4894666;29;20502;-71
2021/01/04 02:09:23;;;;;;;45.22;24.30;;;;;;;;;;4896656;29;20056;-72
2021/01/04 02:12:14;;;;;;;43.33;23.80;;;;;;;;;;4879967;29;20048;-71
2021/01/04 02:15:09;;;;;;;41.97;23.45;;;;;;;;;;4913946;29;20489;-71
2021/01/04 02:17:47;;;;;;;42.72;22.40;;;;;;;;;;4915417;29;20131;-71
2021/01/04 02:20:29;;;;;;;41.03;23.73;;;;;;;;;;4915515;29;20051;-71
2021/01/04 02:23:07;;;;;;;44.28;24.67;;;;;;;;;;4899309;29;20044;-71
2021/01/04 02:25:34;;;;;;;39.45;22.73;;;;;;;;;;4898527;29;20052;-72
2021/01/04 02:28:03;;;;;;;41.70;23.98;;;;;;;;;;4913774;29;20191;-72
2021/01/04 02:30:29;;;;;;;42.92;23.48;;;;;;;;;;4897563;29;20048;-72
2021/01/04 02:32:56;;;;;;;43.10;24.75;;;;;;;;;;4914661;29;20116;-72
2021/01/04 02:35:22;;;;;;;41.50;22.67;;;;;;;;;;4914280;29;20500;-72
2021/01/04 02:37:48;;;;;;;39.03;23.25;;;;;;;;;;4883397;29;20056;-72
2021/01/04 02:40:15;;;;;;;45.40;24.77;;;;;;;;;;4883482;29;20076;-72
2021/01/04 02:42:43;;;;;;;43.25;23.92;;;;;;;;;;4899842;29;20104;-72
2021/01/04 02:45:21;;;;;;;42.22;23.40;;;;;;;;;;4914448;29;20052;-72
2021/01/04 02:48:03;;;;;;;43.92;24.13;;;;;;;;;;4917617;29;20052;-72
2021/01/04 02:50:45;;;;;;;44.00;24.73;;;;;;;;;;4918788;29;20056;-72
2021/01/04 02:53:20;;;;;;;42.28;22.95;;;;;;;;;;4917559;29;20514;-72
2021/01/04 02:55:46;;;;;;;38.92;22.33;;;;;;;;;;4918263;29;20107;-72
2021/01/04 02:58:31;;;;;;;47.42;25.60;;;;;;;;;;4907762;29;20056;-72
2021/01/04 03:01:05;;;;;;;44.28;24.73;;;;;;;;;;4902713;29;20523;-72
2021/01/04 03:03:32;;;;;;;43.35;25.10;;;;;;;;;;4916996;29;20107;-72
2021/01/04 03:06:00;;;;;;;45.00;24.73;;;;;;;;;;4917018;29;20056;-72
2021/01/04 03:08:27;;;;;;;44.45;24.40;;;;;;;;;;4917215;29;20052;-72
2021/01/04 03:10:58;;;;;;;42.75;23.75;;;;;;;;;;4918307;29;20056;-72
2021/01/04 03:13:46;;;;;;;43.58;24.30;;;;;;;;;;4918341;29;20051;-73
2021/01/04 03:16:20;;;;;;;45.72;24.65;;;;;;;;;;4962359;23;20505;-71
2021/01/04 03:18:47;;;;;;;46.80;25.23;;;;;;;;;;4956400;28;20102;-72
2021/01/04 03:21:13;;;;;;;42.75;23.60;;;;;;;;;;4943913;28;20415;-72
2021/01/04 03:23:40;;;;;;;45.65;26.05;;;;;;;;;;4951823;29;20087;-69
2021/01/04 03:26:09;;;;;;;43.72;24.23;;;;;;;;;;4939429;29;20056;-68
2021/01/04 03:28:35;;;;;;;45.85;24.92;;;;;;;;;;4924845;29;20051;-69
2021/01/04 03:31:05;;;;;;;44.35;24.25;;;;;;;;;;4935677;29;20072;-69
2021/01/04 03:33:32;;;;;;;44.53;24.95;;;;;;;;;;4936022;29;20123;-71
2021/01/04 03:35:58;;;;;;;45.85;24.10;;;;;;;;;;4936543;29;20079;-71
2021/01/04 03:38:25;;;;;;;43.45;23.10;;;;;;;;;;4937038;29;20062;-71
2021/01/04 03:40:51;;;;;;;45.55;25.23;;;;;;;;;;4950744;28;20082;-71
2021/01/04 03:43:18;;;;;;;43.90;22.83;;;;;;;;;;4951500;28;20090;-72
2021/01/04 03:45:44;;;;;;;47.63;26.05;;;;;;;;;;4935316;29;20107;-71
2021/01/04 03:48:10;;;;;;;43.95;25.35;;;;;;;;;;4932997;29;20080;-71
2021/01/04 03:50:36;;;;;;;40.95;23.13;;;;;;;;;;4916615;29;20052;-71
2021/01/04 03:53:04;;;;;;;45.60;24.05;;;;;;;;;;4916508;29;20468;-71
2021/01/04 03:55:30;;;;;;;47.15;24.70;;;;;;;;;;4931724;29;20051;-71
2021/01/04 03:57:56;;;;;;;41.60;23.30;;;;;;;;;;4919466;29;20508;-71
2021/01/04 04:00:22;;;;;;;48.35;25.23;;;;;;;;;;4936661;29;20051;-71
2021/01/04 04:02:48;;;;;;;47.85;24.33;;;;;;;;;;4921045;29;20048;-71
2021/01/04 04:05:16;;;;;;;45.33;24.75;;;;;;;;;;4916238;29;20084;-71
2021/01/04 04:07:43;;;;;;;50.83;25.95;;;;;;;;;;4916179;29;20080;-71
2021/01/04 04:10:10;;;;;;;47.80;25.80;;;;;;;;;;4916437;29;20048;-71
2021/01/04 04:12:37;;;;;;;49.47;24.98;;;;;;;;;;4921112;29;20052;-71
2021/01/04 04:15:05;;;;;;;47.85;25.42;;;;;;;;;;4931965;29;20076;-71
2021/01/04 04:17:31;;;;;;;49.30;27.17;;;;;;;;;;4927715;29;20051;-71
2021/01/04 04:19:57;;;;;;;49.17;26.13;;;;;;;;;;4917571;29;20060;-71
2021/01/04 04:22:23;;;;;;;48.08;26.48;;;;;;;;;;4914304;29;20112;-71
2021/01/04 04:24:49;;;;;;;51.92;28.58;;;;;;;;;;4914584;29;20504;-71
2021/01/04 04:27:16;;;;;;;49.90;27.00;;;;;;;;;;4916483;29;20185;-72
2021/01/04 04:29:44;;;;;;;47.95;25.00;;;;;;;;;;4915981;29;20056;-72
2021/01/04 04:32:10;;;;;;;47.20;25.95;;;;;;;;;;4900308;29;20115;-72
2021/01/04 04:34:37;;;;;;;47.63;26.23;;;;;;;;;;4900041;29;20107;-72
2021/01/04 04:37:04;;;;;;;48.00;26.55;;;;;;;;;;4904132;29;20090;-71
2021/01/04 04:39:30;;;;;;;50.35;25.98;;;;;;;;;;4928719;29;20083;-72
2021/01/04 04:41:56;;;;;;;54.80;28.20;;;;;;;;;;4915841;29;20060;-72
2021/01/04 04:44:49;;;;;;;50.88;26.98;;;;;;;;;;4927163;29;20471;-71
2021/01/04 04:47:43;;;;;;;46.78;25.27;;;;;;;;;;4934541;29;20083;-71
2021/01/04 04:50:32;;;;;;;51.75;26.05;;;;;;;;;;4916628;29;20087;-71
2021/01/04 04:53:24;;;;;;;47.33;25.25;;;;;;;;;;4922964;29;20051;-71
2021/01/04 04:56:03;;;;;;;50.70;27.15;;;;;;;;;;4931575;29;20052;-71
2021/01/04 04:58:36;;;;;;;47.47;25.80;;;;;;;;;;4916540;29;20662;-72
2021/01/04 05:01:05;;;;;;;51.20;25.70;;;;;;;;;;4931908;29;20090;-71
2021/01/04 05:03:39;;;;;;;45.67;25.40;;;;;;;;;;4931926;29;20052;-71
2021/01/04 05:06:26;;;;;;;48.83;25.73;;;;;;;;;;4931607;29;20142;-71
2021/01/04 05:09:13;;;;;;;46.72;24.60;;;;;;;;;;4923062;29;20044;-71
2021/01/04 05:11:41;;;;;;;53.50;26.30;;;;;;;;;;4934139;29;20091;-71
2021/01/04 05:14:14;;;;;;;52.38;25.77;;;;;;;;;;4921482;29;20158;-72
2021/01/04 05:17:09;;;;;;;47.33;25.52;;;;;;;;;;4919955;29;20808;-72
2021/01/04 05:20:00;;;;;;;52.88;24.70;;;;;;;;;;4928884;29;20126;-72
2021/01/04 05:22:39;;;;;;;48.13;25.42;;;;;;;;;;4935244;29;20058;-71
2021/01/04 05:25:11;;;;;;;51.40;26.20;;;;;;;;;;4949676;29;20415;-71
2021/01/04 05:27:43;;;;;;;54.33;26.48;;;;;;;;;;4927498;29;20052;-71
2021/01/04 05:30:22;;;;;;;48.45;25.27;;;;;;;;;;4926258;29;20419;-71
2021/01/04 05:33:00;;;;;;;48.15;25.30;;;;;;;;;;4930499;29;20056;-71
2021/01/04 05:35:27;;;;;;;48.33;23.88;;;;;;;;;;4923636;29;20083;-71
2021/01/04 05:38:11;;;;;;;51.35;25.45;;;;;;;;;;4928060;29;20526;-71
2021/01/04 05:41:15;;;;;;;54.00;27.42;;;;;;;;;;4931871;29;20476;-71
2021/01/04 05:44:02;;;;;;;53.95;25.67;;;;;;;;;;4934666;29;20079;-71
2021/01/04 05:46:46;;;;;;;51.72;26.02;;;;;;;;;;4932126;29;20083;-71
2021/01/04 05:49:30;;;;;;;46.97;25.65;;;;;;;;;;4913539;29;20507;-71
2021/01/04 05:51:56;;;;;;;50.28;26.23;;;;;;;;;;4948228;29;20356;-71
2021/01/04 05:54:31;;;;;;;51.17;26.65;;;;;;;;;;4949462;29;20091;-71
2021/01/04 05:57:06;;;;;;;48.08;24.63;;;;;;;;;;4947653;29;20114;-71
2021/01/04 05:59:32;;;;;;;47.60;25.08;;;;;;;;;;4914955;29;20099;-71
2021/01/04 06:02:03;;;;;;;46.63;24.08;;;;;;;;;;4914319;29;20557;-71
2021/01/04 06:04:29;;;;;;;42.40;23.13;;;;;;;;;;4913898;29;20052;-71
2021/01/04 06:07:06;;;;;;;41.55;23.20;;;;;;;;;;4914655;29;20063;-71
2021/01/04 06:09:32;;;;;;;44.70;24.55;;;;;;;;;;4914762;29;20107;-71
2021/01/04 06:12:18;;;;;;;48.35;23.70;;;;;;;;;;4914280;29;20116;-71
2021/01/04 06:14:44;;;;;;;49.72;23.60;;;;;;;;;;4914225;29;20415;-71
2021/01/04 06:17:43;;;;;;;48.22;24.98;;;;;;;;;;4914226;29;20139;-71
2021/01/04 06:20:45;;;;;;;46.80;24.27;;;;;;;;;;4914405;29;20115;-71
2021/01/04 06:23:14;;;;;;;46.67;24.33;;;;;;;;;;4931941;29;20123;-71
2021/01/04 06:25:40;;;;;;;50.38;25.42;;;;;;;;;;4913565;29;20083;-71
2021/01/04 06:28:06;;;;;;;45.85;25.27;;;;;;;;;;4929938;29;20574;-71
2021/01/04 06:30:35;;;;;;;47.38;24.95;;;;;;;;;;4945828;29;20055;-71
2021/01/04 06:33:15;;;;;;;44.65;24.20;;;;;;;;;;4913980;29;20420;-71
2021/01/04 06:35:41;;;;;;;50.92;26.30;;;;;;;;;;4913842;29;20052;-71
2021/01/04 06:38:23;;;;;;;49.65;24.25;;;;;;;;;;4914059;29;20055;-71
2021/01/04 06:40:49;;;;;;;48.22;24.33;;;;;;;;;;4915273;29;20103;-71
2021/01/04 06:43:18;;;;;;;50.40;25.15;;;;;;;;;;4913867;29;20463;-71
2021/01/04 06:45:56;;;;;;;47.70;24.83;;;;;;;;;;4914949;29;20048;-71
2021/01/04 06:48:43;;;;;;;50.53;24.50;;;;;;;;;;4929303;29;20492;-71
2021/01/04 06:51:38;;;;;;;48.88;24.77;;;;;;;;;;4915231;29;20087;-71
2021/01/04 06:54:25;;;;;;;49.90;24.60;;;;;;;;;;4930951;29;20055;-71
2021/01/04 06:57:21;;;;;;;48.78;24.73;;;;;;;;;;4920610;29;20739;-71
2021/01/04 06:59:56;;;;;;;51.00;25.83;;;;;;;;;;4915609;29;20060;-71
2021/01/04 07:02:39;;;;;;;48.38;24.50;;;;;;;;;;4932159;29;20496;-71
2021/01/04 07:05:27;;;;;;;51.03;25.27;;;;;;;;;;4928752;29;20048;-71
2021/01/04 07:08:05;;;;;;;49.72;24.27;;;;;;;;;;4930399;29;20110;-71
2021/01/04 07:10:44;;;;;;;47.25;24.73;;;;;;;;;;4933039;29;20051;-71
2021/01/04 07:13:25;;;;;;;52.15;24.15;;;;;;;;;;4912958;29;20056;-71
2021/01/04 07:16:07;;;;;;;48.75;24.95;;;;;;;;;;4913657;29;20048;-71
2021/01/04 07:18:52;;;;;;;52.15;24.67;;;;;;;;;;4933118;29;20103;-71
2021/01/04 07:21:30;;;;;;;45.15;23.60;;;;;;;;;;4917255;29;20080;-71
2021/01/04 07:24:10;;;;;;;46.53;23.98;;;;;;;;;;4918074;29;20522;-71
2021/01/04 07:26:52;;;;;;;48.45;25.08;;;;;;;;;;4939752;29;20048;-71
2021/01/04 07:30:00;;;;;;;50.58;24.10;;;;;;;;;;4935915;29;20051;-71
2021/01/04 07:32:44;;;;;;;45.75;23.13;;;;;;;;;;4912913;29;20056;-70
2021/01/04 07:35:35;;;;;;;44.42;22.17;;;;;;;;;;4915728;29;20080;-70
2021/01/04 07:38:21;;;;;;;43.53;22.58;;;;;;;;;;4915919;29;20056;-70
2021/01/04 07:41:05;;;;;;;48.15;23.92;;;;;;;;;;4929745;29;20344;-70
2021/01/04 07:43:59;;;;;;;41.92;23.23;;;;;;;;;;4935173;29;20091;-70
2021/01/04 07:46:32;;;;;;;43.28;22.60;;;;;;;;;;4934904;29;20083;-70
2021/01/04 07:49:36;;;;;;;46.00;22.95;;;;;;;;;;4934900;29;20055;-70
2021/01/04 07:52:14;;;;;;;40.85;21.75;;;;;;;;;;4929766;29;20048;-70
2021/01/04 07:55:02;;;;;;;48.38;24.67;;;;;;;;;;4934627;29;20471;-70
2021/01/04 07:57:50;;;;;;;48.35;23.33;;;;;;;;;;4922244;29;20052;-70
2021/01/04 08:00:44;;;;;;;43.58;21.20;;;;;;;;;;4919363;29;20095;-70
2021/01/04 08:03:30;;;;;;;45.75;23.00;;;;;;;;;;4934475;29;20106;-70
2021/01/04 08:06:13;;;;;;;50.95;23.27;;;;;;;;;;4939792;28;20047;-70
2021/01/04 08:08:59;;;;;;;45.63;22.88;;;;;;;;;;4948261;29;20122;-70
2021/01/04 08:11:47;;;;;;;46.88;23.85;;;;;;;;;;4934102;29;20487;-70
2021/01/04 08:14:32;;;;;;;44.20;22.30;;;;;;;;;;4933590;29;20060;-70
2021/01/04 08:17:17;;;;;;;49.10;21.63;;;;;;;;;;4933981;29;20582;-70
2021/01/04 08:19:44;;;;;;;44.95;21.40;;;;;;;;;;4933255;29;20083;-70
2021/01/04 08:22:19;;;;;;;44.17;23.23;;;;;;;;;;4916841;29;20091;-70
2021/01/04 08:24:46;;;;;;;41.30;22.27;;;;;;;;;;4930865;29;20087;-70
2021/01/04 08:27:21;;;;;;;46.88;21.35;;;;;;;;;;4932250;29;20051;-70
2021/01/04 08:29:50;;;;;;;40.50;21.77;;;;;;;;;;4934093;29;20067;-70
2021/01/04 08:32:21;;;;;;;40.50;20.45;;;;;;;;;;4944125;29;20051;-70
2021/01/04 08:34:47;;;;;;;45.05;22.98;;;;;;;;;;4929415;29;20562;-70
2021/01/04 08:37:17;;;;;;;42.45;22.95;;;;;;;;;;4928890;29;20108;-70
2021/01/04 08:39:48;;;;;;;41.50;22.35;;;;;;;;;;4904810;29;20087;-70
2021/01/04 08:42:20;;;;;;;41.53;21.33;;;;;;;;;;4922037;29;20134;-71
2021/01/04 08:44:59;;;;;;;42.53;21.77;;;;;;;;;;4922560;29;20044;-72
2021/01/04 08:47:34;;;;;;;48.03;24.02;;;;;;;;;;4930897;29;20067;-69
2021/01/04 08:50:34;;;;;;;41.83;20.65;;;;;;;;;;4934959;29;20127;-69
2021/01/04 08:53:17;;;;;;;40.58;21.92;;;;;;;;;;4920939;29;20524;-69
2021/01/04 08:55:43;;;;;;;42.67;22.05;;;;;;;;;;4910663;29;20048;-68
2021/01/04 08:58:38;;;;;;;41.13;21.23;;;;;;;;;;4941633;28;20479;-70
2021/01/04 09:01:24;;;;;;;40.30;21.90;;;;;;;;;;4923047;29;20055;-69
2021/01/04 09:03:50;;;;;;;36.40;20.40;;;;;;;;;;4920137;29;20048;-72
2021/01/04 09:06:27;;;;;;;40.22;20.00;;;;;;;;;;4917264;29;20056;-74
2021/01/04 09:08:57;;;;;;;42.22;21.60;;;;;;;;;;4929359;29;20055;-69
2021/01/04 09:11:23;;;;;;;43.90;22.33;;;;;;;;;;4914153;29;20055;-69
2021/01/04 09:13:49;;;;;;;42.75;22.00;;;;;;;;;;4926035;29;20047;-71
2021/01/04 09:16:23;;;;;;;39.40;21.63;;;;;;;;;;4951870;23;20058;-73
2021/01/04 09:18:51;;;;;;;39.83;21.45;;;;;;;;;;4968031;28;20051;-71
2021/01/04 09:21:35;;;;;;;43.13;22.83;;;;;;;;;;4930198;29;20445;-76
2021/01/04 09:24:24;;;;;;;36.38;19.75;;;;;;;;;;4953142;28;20047;-73
2021/01/04 09:26:53;;;;;;;42.38;21.02;;;;;;;;;;4939885;29;20043;-72
2021/01/04 09:29:38;;;;;;;38.25;20.55;;;;;;;;;;4909499;29;20056;-76
2021/01/04 09:32:11;;;;;;;39.17;21.05;;;;;;;;;;4910190;29;20062;-77
2021/01/04 09:34:37;;;;;;;40.13;20.98;;;;;;;;;;4918138;29;21541;-75
2021/01/04 09:37:10;;;;;;;40.65;21.25;;;;;;;;;;4932324;29;20056;-76
2021/01/04 09:39:38;;;;;;;37.63;20.15;;;;;;;;;;4932279;29;20095;-72
2021/01/04 09:42:07;;;;;;;37.00;20.13;;;;;;;;;;4929147;29;20055;-70
2021/01/04 09:44:34;;;;;;;40.05;21.70;;;;;;;;;;4933723;29;20052;-77
2021/01/04 09:47:05;;;;;;;39.05;20.38;;;;;;;;;;4916495;29;20110;-75
2021/01/04 09:49:39;;;;;;;42.05;20.50;;;;;;;;;;4933767;29;20058;-77
2021/01/04 09:52:13;;;;;;;39.63;21.45;;;;;;;;;;4901063;29;20060;-74
2021/01/04 09:54:45;;;;;;;37.25;19.88;;;;;;;;;;4928972;29;20498;-76
2021/01/04 09:57:11;;;;;;;41.42;22.60;;;;;;;;;;4932656;29;20075;-73
2021/01/04 09:59:56;;;;;;;38.83;21.60;;;;;;;;;;4932254;29;20058;-76
2021/01/04 10:02:30;;;;;;;40.20;20.75;;;;;;;;;;4915237;29;20079;-76
2021/01/04 10:05:09;;;;;;;39.20;20.90;;;;;;;;;;4910827;29;20063;-73
2021/01/04 10:07:35;;;;;;;36.15;20.25;;;;;;;;;;4933225;29;20048;-73
2021/01/04 10:10:08;;;;;;;37.70;21.00;;;;;;;;;;4932236;29;20448;-73
2021/01/04 10:12:34;;;;;;;40.47;21.55;;;;;;;;;;4932480;29;20090;-73
2021/01/04 10:15:02;;;;;;;38.00;21.17;;;;;;;;;;4934462;29;20066;-73
2021/01/04 10:17:41;;;;;;;37.65;20.27;;;;;;;;;;4925419;29;20047;-73
2021/01/04 10:20:33;;;;;;;37.30;19.20;;;;;;;;;;4931599;29;20060;-74
2021/01/04 10:23:00;;;;;;;35.65;20.40;;;;;;;;;;4931121;29;20421;-75
2021/01/04 10:25:38;;;;;;;38.55;21.30;;;;;;;;;;4907141;29;20044;-75
2021/01/04 10:28:07;;;;;;;36.90;20.33;;;;;;;;;;4926591;29;20410;-77
2021/01/04 10:30:33;;;;;;;35.22;21.05;;;;;;;;;;4933748;29;20048;-75
2021/01/04 10:33:04;;;;;;;35.63;19.65;;;;;;;;;;4933307;29;20048;-75
2021/01/04 10:35:30;;;;;;;32.97;19.15;;;;;;;;;;4934533;29;20043;-76
2021/01/04 10:38:16;;;;;;;33.60;20.17;;;;;;;;;;4931734;29;20058;-75
2021/01/04 10:40:47;;;;;;;36.28;20.42;;;;;;;;;;4925966;29;20574;-76
2021/01/04 10:43:22;;;;;;;38.42;21.38;;;;;;;;;;4931612;29;20499;-74
2021/01/04 10:46:15;;;;;;;38.35;21.67;;;;;;;;;;4929637;29;20055;-74
2021/01/04 10:49:17;;;;;;;41.80;20.55;;;;;;;;;;4932170;29;20054;-76
2021/01/04 10:51:51;;;;;;;36.30;20.65;;;;;;;;;;4934577;29;20562;-70
2021/01/04 10:54:20;;;;;;;38.05;21.60;;;;;;;;;;4929551;29;20627;-71
2021/01/04 10:56:59;;;;;;;40.85;22.88;;;;;;;;;;4934865;29;20055;-75
2021/01/04 10:59:38;;;;;;;35.40;20.20;;;;;;;;;;4919798;29;20102;-76
2021/01/04 11:02:05;;;;;;;35.85;20.23;;;;;;;;;;4903264;29;20055;-73
2021/01/04 11:04:31;;;;;;;38.38;23.08;;;;;;;;;;4936017;29;20067;-72
2021/01/04 11:07:07;;;;;;;42.97;21.58;;;;;;;;;;4936256;29;20047;-72
2021/01/04 11:09:38;;;;;;;38.90;20.40;;;;;;;;;;4935320;29;20043;-72
2021/01/04 11:12:17;;;;;;;35.92;21.83;;;;;;;;;;4907369;29;20148;-71
2021/01/04 11:14:53;;;;;;;36.15;20.55;;;;;;;;;;4935306;29;20059;-73
2021/01/04 11:17:30;;;;;;;39.72;21.83;;;;;;;;;;4935810;29;20052;-70
2021/01/04 11:20:16;;;;;;;38.42;22.08;;;;;;;;;;4933894;29;20115;-71
2021/01/04 11:22:43;;;;;;;40.80;22.98;;;;;;;;;;4933272;29;20058;-71
2021/01/04 11:25:10;;;;;;;39.58;22.67;;;;;;;;;;4935011;29;20079;-69
2021/01/04 11:27:36;;;;;;;34.88;20.48;;;;;;;;;;4935712;29;20364;-68
2021/01/04 11:30:04;;;;;;;38.42;21.27;;;;;;;;;;4935988;29;20111;-69
2021/01/04 11:32:30;;;;;;;33.50;19.92;;;;;;;;;;4935801;29;20056;-69
2021/01/04 11:35:00;;;;;;;36.25;21.05;;;;;;;;;;4936966;29;20052;-69
2021/01/04 11:37:28;;;;;;;36.05;20.85;;;;;;;;;;4936317;28;20059;-71
2021/01/04 11:39:54;;;;;;;37.28;20.98;;;;;;;;;;4935826;29;20044;-71
2021/01/04 11:42:20;;;;;;;36.53;19.90;;;;;;;;;;4935701;29;20071;-70
2021/01/04 11:44:46;;;;;;;33.65;19.25;;;;;;;;;;4935906;29;20056;-70
2021/01/04 11:47:16;;;;;;;37.85;20.88;;;;;;;;;;4935286;29;20051;-70
2021/01/04 11:49:42;;;;;;;35.22;20.08;;;;;;;;;;4935513;29;20048;-71
2021/01/04 11:52:08;;;;;;;37.45;21.63;;;;;;;;;;4935614;29;20047;-70
2021/01/04 11:54:34;;;;;;;38.25;20.90;;;;;;;;;;4932297;29;20520;-69
2021/01/04 11:57:00;;;;;;;32.85;19.13;;;;;;;;;;4934816;29;20051;-69
2021/01/04 11:59:26;;;;;;;32.17;19.67;;;;;;;;;;4935424;29;20099;-72
2021/01/04 12:01:54;;;;;;;34.00;19.00;;;;;;;;;;4933297;29;20084;-72
2021/01/04 12:04:20;;;;;;;35.50;18.73;;;;;;;;;;4919358;29;20043;-75
2021/01/04 12:06:48;;;;;;;33.08;19.80;;;;;;;;;;4928259;29;20048;-75
2021/01/04 12:09:14;;;;;;;26.98;15.82;;;;;;;;;;4918851;29;20051;-75
2021/01/04 12:11:40;;;;;;;22.45;13.20;;;;;;;;;;4935870;29;20107;-73
2021/01/04 12:14:08;;;;;;;100.07;19.88;;;;;;;;;;4936170;29;20052;-76
2021/01/04 12:16:35;;;;;;;24.15;14.35;;;;;;;;;;4932766;29;20534;-74
2021/01/04 12:19:02;;;;;;;20.95;14.02;;;;;;;;;;4934766;29;20496;-73
2021/01/04 12:21:29;;;;;;;22.60;13.65;;;;;;;;;;4922619;29;20060;-73
2021/01/04 12:23:55;;;;;;;21.73;13.45;;;;;;;;;;4932908;29;20138;-72
2021/01/04 12:26:22;;;;;;;23.52;13.52;;;;;;;;;;4931833;29;20056;-72
2021/01/04 12:28:49;;;;;;;23.73;14.20;;;;;;;;;;4932851;29;20044;-72
2021/01/04 12:31:15;;;;;;;26.58;15.27;;;;;;;;;;4933551;29;20087;-72
2021/01/04 12:33:41;;;;;;;23.55;13.38;;;;;;;;;;4931589;29;20052;-72
2021/01/04 12:36:17;;;;;;;25.92;14.38;;;;;;;;;;4933959;29;20440;-72
2021/01/04 12:38:44;;;;;;;19.20;11.98;;;;;;;;;;4931428;29;20138;-70
2021/01/04 12:41:10;;;;;;;21.92;13.05;;;;;;;;;;4931546;29;20142;-72
2021/01/04 12:43:37;;;;;;;27.58;13.25;;;;;;;;;;4931270;29;20126;-72
2021/01/04 12:46:05;;;;;;;21.73;12.52;;;;;;;;;;4929961;29;20052;-73
2021/01/04 12:48:32;;;;;;;22.23;13.07;;;;;;;;;;4933233;29;20470;-73
2021/01/04 12:50:58;;;;;;;15.80;10.93;;;;;;;;;;4932598;29;20146;-72
2021/01/04 12:53:24;;;;;;;23.48;13.35;;;;;;;;;;4932272;29;20130;-71
2021/01/04 12:55:50;;;;;;;21.20;13.45;;;;;;;;;;4930832;29;20166;-72
2021/01/04 12:58:18;;;;;;;27.77;16.08;;;;;;;;;;4930182;29;20055;-72
2021/01/04 13:00:45;;;;;;;19.55;12.32;;;;;;;;;;4929510;29;20051;-72
2021/01/04 13:03:12;;;;;;;19.70;13.00;;;;;;;;;;4931115;29;20110;-72
2021/01/04 13:05:38;;;;;;;21.42;13.35;;;;;;;;;;4930908;29;20187;-71
2021/01/04 13:08:04;;;;;;;24.45;14.35;;;;;;;;;;4928980;29;20051;-71
2021/01/04 13:10:30;;;;;;;25.95;14.88;;;;;;;;;;4932424;29;20051;-71
2021/01/04 13:12:57;;;;;;;27.90;15.18;;;;;;;;;;4929906;29;20063;-71
2021/01/04 13:15:23;;;;;;;23.88;13.57;;;;;;;;;;4930717;29;20058;-74
2021/01/04 13:17:49;;;;;;;23.17;13.57;;;;;;;;;;4911055;29;20091;-70
2021/01/04 13:20:15;;;;;;;23.55;14.57;;;;;;;;;;4933792;29;20130;-70
2021/01/04 13:22:42;;;;;;;24.75;14.10;;;;;;;;;;4931013;29;20115;-70
2021/01/04 13:25:11;;;;;;;25.50;13.57;;;;;;;;;;4933641;29;20106;-70
2021/01/04 13:27:38;;;;;;;26.83;14.82;;;;;;;;;;4932378;29;20119;-70
2021/01/04 13:30:05;;;;;;;23.08;13.35;;;;;;;;;;4923550;29;20052;-70
2021/01/04 13:32:31;;;;;;;22.77;12.65;;;;;;;;;;4933711;29;20047;-70
2021/01/04 13:34:57;;;;;;;24.83;14.10;;;;;;;;;;4935163;29;20048;-70
2021/01/04 13:37:23;;;;;;;21.45;13.00;;;;;;;;;;4934538;28;20146;-70
2021/01/04 13:39:49;;;;;;;25.55;13.57;;;;;;;;;;4934017;29;20075;-70
2021/01/04 13:42:17;;;;;;;19.17;12.32;;;;;;;;;;4933151;29;20059;-70
2021/01/04 13:44:44;;;;;;;23.40;13.38;;;;;;;;;;4933816;29;20039;-72
2021/01/04 13:47:12;;;;;;;21.60;12.95;;;;;;;;;;4930510;29;20083;-72
2021/01/04 13:49:44;;;;;;;24.73;13.88;;;;;;;;;;4933560;29;20051;-72
2021/01/04 13:52:10;;;;;;;22.73;12.43;;;;;;;;;;4931343;29;20876;-70
2021/01/04 13:54:36;;;;;;;23.17;13.38;;;;;;;;;;4933460;29;20056;-72
2021/01/04 13:57:02;;;;;;;22.45;13.43;;;;;;;;;;4933418;29;20090;-70
2021/01/04 13:59:28;;;;;;;22.38;13.02;;;;;;;;;;4932175;29;20051;-71
2021/01/04 14:02:03;;;;;;;27.45;15.05;;;;;;;;;;4932204;29;20466;-71
2021/01/04 14:04:29;;;;;;;22.63;12.68;;;;;;;;;;4932547;29;20110;-72
2021/01/04 14:06:55;;;;;;;21.55;12.18;;;;;;;;;;4932075;29;20103;-72
2021/01/04 14:09:22;;;;;;;21.63;12.57;;;;;;;;;;4931805;29;20143;-71
2021/01/04 14:11:51;;;;;;;22.63;12.60;;;;;;;;;;4932350;29;20180;-70
2021/01/04 14:14:19;;;;;;;24.15;13.60;;;;;;;;;;4933208;29;20130;-72
2021/01/04 14:16:45;;;;;;;21.98;12.50;;;;;;;;;;4928256;29;20081;-73
2021/01/04 14:19:12;;;;;;;20.58;12.20;;;;;;;;;;4932186;29;20075;-72
2021/01/04 14:21:46;;;;;;;21.55;13.02;;;;;;;;;;4931554;29;20051;-73
2021/01/04 14:24:13;;;;;;;26.13;15.02;;;;;;;;;;4930190;29;20118;-72
2021/01/04 14:26:39;;;;;;;27.90;16.30;;;;;;;;;;4936068;29;20055;-71
2021/01/04 14:29:06;;;;;;;26.65;15.20;;;;;;;;;;4936925;29;20101;-69
2021/01/04 14:31:44;;;;;;;29.38;17.10;;;;;;;;;;4936182;29;20051;-72
2021/01/04 14:34:10;;;;;;;28.75;16.50;;;;;;;;;;4907592;29;20111;-73
2021/01/04 14:36:37;;;;;;;28.40;15.85;;;;;;;;;;4939104;29;20106;-76
2021/01/04 14:39:05;;;;;;;27.50;16.25;;;;;;;;;;4920232;29;20058;-76
2021/01/04 14:42:24;;;;;;;29.80;17.50;;;;;;;;;;4905994;29;20096;-80
2021/01/04 14:44:51;;;;;;;32.63;18.02;;;;;;;;;;4938938;29;20044;-76
2021/01/04 14:47:25;;;;;;;32.67;19.27;;;;;;;;;;4910390;29;20052;-77
2021/01/04 14:49:52;;;;;;;30.40;17.40;;;;;;;;;;4936054;29;20125;-76
2021/01/04 14:52:18;;;;;;;32.92;18.83;;;;;;;;;;4936969;29;20087;-75
2021/01/04 14:54:47;;;;;;;30.35;17.88;;;;;;;;;;4935074;29;20126;-74
2021/01/04 14:57:14;;;;;;;30.85;19.20;;;;;;;;;;4936257;29;20103;-74
2021/01/04 14:59:41;;;;;;;38.22;20.95;;;;;;;;;;4910118;29;20387;-76